• Join FlightAware (Why Join?)
  • Login
  • US Flag 
06:42PM EDT


 

Airport Tracker/Info


-or-


 

Live Flight TrackerFlight Track Log ✈ UAL5822 ✈ 22-Apr-2013 ✈ KORD - KTYS

Flight Track Log - Related Links

Times and Time Zones

All times are in EDT time to prevent confusion due to time zone crossing. See the UAL5822 flight status page for this flight to view local times or setup timezone preferences in your user account.

Time Position Orientation Groundspeed Altitude Reporting Facility
EDT Latitude Longitude Course Direction KTS MPH feet Rate Location/Type
10:49AM 41.9167 -87.9000 169° South 177 204 3,300  Level Chicago TRACON
10:50AM 41.8203 -87.8753 169° South 218 251 6,400 2,100 Climbing Chicago Center
10:51AM 41.7589 -87.8272 150° Southeast 255 293 9,000 2,220 Climbing Chicago Center
10:52AM 41.6947 -87.7792 151° Southeast 263 303 11,000 1,980 Climbing Chicago Center
10:53AM 41.6281 -87.7261 149° Southeast 277 319 13,100 1,800 Climbing Chicago Center
10:54AM 41.4263 -87.5213 169° South  Level Estimated
10:54AM 41.5417 -87.6642 152° Southeast 293 337 14,800  Level Chicago Center
10:55AM 41.4617 -87.6067 152° Southeast 319 367 15,800 1,020 Climbing Chicago Center
10:56AM 41.3767 -87.5464 152° Southeast 339 390 17,000 1,020 Climbing Chicago Center
10:57AM 41.2828 -87.4969 158° South 365 420 18,000 1,020 Climbing Chicago Center
10:58AM 41.1872 -87.4522 161° South 365 420 19,200 1,200 Climbing Chicago Center
10:59AM 41.0903 -87.4072 161° South 367 422 20,500 1,200 Climbing Chicago Center
11:00AM 40.9897 -87.3603 161° South 377 434 21,700 1,260 Climbing Chicago Center
11:02AM 40.8906 -87.3128 160° South 381 438 23,200 1,500 Climbing Chicago Center
11:03AM 40.7742 -87.2400 155° Southeast 388 447 24,800 1,200 Climbing Chicago Center
11:04AM 40.6781 -87.1728 152° Southeast 390 449 25,800 1,020 Climbing Chicago Center
11:05AM 40.5808 -87.1028 151° Southeast 396 456 26,900 1,020 Climbing Chicago Center
11:06AM 40.4825 -87.0350 152° Southeast 400 460 27,900 960 Climbing Chicago Center
11:07AM 40.3844 -86.9653 152° Southeast 401 461 29,000 1,020 Climbing Chicago Center
11:08AM 40.2869 -86.8972 152° Southeast 401 461 30,000 960 Climbing Chicago Center
11:09AM 40.1694 -86.8139 152° Southeast 400 460 31,000 540 Climbing Chicago Center
11:09AM 40.1039 -86.7736 155° Southeast 409 471 31,000  Level Indianapolis Center
11:11AM 39.9719 -86.6822 152° Southeast 439 505 31,000  Level Indianapolis Center
11:12AM 39.8589 -86.6036 152° Southeast 454 522 31,000  Level Indianapolis Center
11:13AM 39.7478 -86.5283 152° Southeast 451 519 31,000  Level Indianapolis Center
11:14AM 39.6378 -86.4539 152° Southeast 445 512 31,000  Level Indianapolis Center
11:15AM 39.5272 -86.3781 152° Southeast 445 512 31,000  Level Indianapolis Center
11:16AM 39.4150 -86.3017 152° Southeast 451 519 31,000  Level Indianapolis Center
11:17AM 39.3031 -86.2267 153° Southeast 450 518 31,000  Level Indianapolis Center
11:18AM 39.1908 -86.1508 152° Southeast 451 519 31,000  Level Indianapolis Center
11:19AM 39.0797 -86.0753 152° Southeast 449 517 31,000  Level Indianapolis Center
11:20AM 38.9669 -86.0006 153° Southeast 450 518 31,000  Level Indianapolis Center
11:21AM 38.8314 -85.9108 153° Southeast 453 521 31,000  Level Indianapolis Center
11:22AM 38.7219 -85.8381 153° Southeast 444 511 31,000  Level Indianapolis Center
11:23AM 38.6078 -85.7625 153° Southeast 456 525 31,000  Level Indianapolis Center
11:24AM 38.4947 -85.6883 153° Southeast 453 521 31,000  Level Indianapolis Center
11:25AM 38.3817 -85.6139 153° Southeast 454 522 31,000  Level Indianapolis Center
11:26AM 38.2678 -85.5389 153° Southeast 456 525 31,000  Level Indianapolis Center
11:27AM 38.1531 -85.4656 153° Southeast 458 527 31,000  Level Indianapolis Center
11:28AM 38.0381 -85.3914 153° Southeast 459 528 31,000  Level Indianapolis Center
11:29AM 37.9244 -85.3167 153° Southeast 458 527 31,000  Level Indianapolis Center
11:30AM 37.8014 -85.2367 153° Southeast 455 524 31,000  Level Indianapolis Center
11:31AM 37.6872 -85.1631 153° Southeast 458 527 31,000  Level Indianapolis Center
11:32AM 37.5733 -85.0892 153° Southeast 460 529 31,000 -360 Level Indianapolis Center
11:33AM 37.4319 -85.0294 161° South 458 527 30,300 -900 Descending Indianapolis Center
11:34AM 37.3100 -84.9817 163° South 461 531 29,200 -1,200 Descending Indianapolis Center
11:35AM 37.1919 -84.9322 162° South 451 519 27,900 -1,260 Descending Indianapolis Center
11:36AM 37.0758 -84.8886 163° South 439 505 26,600 -1,260 Descending Indianapolis Center
11:37AM 36.9597 -84.8467 164° South 437 503 25,400 -1,260 Descending Indianapolis Center
11:38AM 36.8411 -84.8008 163° South 443 510 24,100 -1,560 Descending Indianapolis Center
11:39AM 36.7256 -84.7567 163° South 437 503 22,200 -2,100 Descending Indianapolis Center
11:40AM 36.6042 -84.6761 152° Southeast 411 473 19,900 -2,160 Descending Indianapolis Center
11:41AM 36.5167 -84.6019 146° Southeast 388 447 17,800 -2,220 Descending Indianapolis Center
11:42AM 36.4347 -84.5300 145° Southeast 367 422 15,400 -2,340 Descending Indianapolis Center
11:43AM 36.3506 -84.4561 145° Southeast 367 422 13,100 -1,860 Descending Indianapolis Center
11:44AM 36.2683 -84.3858 145° Southeast 359 413 11,600 -1,080 Descending Indianapolis Center
11:45AM 36.1889 -84.3181 145° Southeast 347 399 11,000 -360 Descending Indianapolis Center
11:46AM 36.1228 -84.2650 147° Southeast 324 373 10,900 -720 Descending Atlanta Center
11:47AM 36.0622 -84.2108 144° Southeast 289 333 9,700 -1,320 Descending Atlanta Center
11:48AM 35.9936 -84.1875 165° South 264 304 8,300 -1,620 Descending Atlanta Center
11:49AM 35.9164 -84.1875 180° South 264 304 6,500 -1,800 Descending Atlanta Center
11:50AM 35.8456 -84.1847 178° South 264 304 4,800 -1,500 Descending Atlanta Center
11:51AM 35.7933 -84.1386 144° Southeast 233 268 3,500 -960 Descending Atlanta Center
11:52AM 35.7600 -84.0875 129° Southeast 198 228 2,900 -600 Descending Atlanta Center
11:54AM 35.8000 -83.9833 58° Northeast  Level FlightAware Approximate
12:01PM 35.8110 -83.9940 58° Northeast  Level Estimated
12:02PM 35.8110 -83.9940 58° Northeast  Level Estimated